sensor_id;sensor_type;location;lat;lon;timestamp;pressure;altitude;pressure_sealevel;temperature;humidity
58955;BME280;45815;52.334;5.024;2022-12-10T00:01:15;100850.19;;;-0.10;100.00
58955;BME280;45815;52.334;5.024;2022-12-10T00:03:41;100858.34;;;-0.17;100.00
58955;BME280;45815;52.334;5.024;2022-12-10T00:06:12;100855.47;;;-0.22;100.00
58955;BME280;45815;52.334;5.024;2022-12-10T00:08:38;100858.16;;;-0.20;100.00
58955;BME280;45815;52.334;5.024;2022-12-10T00:11:08;100854.88;;;-0.17;100.00
58955;BME280;45815;52.334;5.024;2022-12-10T00:13:35;100855.69;;;-0.18;100.00
58955;BME280;45815;52.334;5.024;2022-12-10T00:16:02;100851.31;;;-0.19;100.00
58955;BME280;45815;52.334;5.024;2022-12-10T00:18:28;100853.09;;;-0.18;100.00
58955;BME280;45815;52.334;5.024;2022-12-10T00:20:54;100857.84;;;-0.11;100.00
58955;BME280;45815;52.334;5.024;2022-12-10T00:23:19;100855.16;;;-0.13;100.00
58955;BME280;45815;52.334;5.024;2022-12-10T00:25:45;100854.63;;;-0.07;100.00
58955;BME280;45815;52.334;5.024;2022-12-10T00:28:10;100870.94;;;-0.08;100.00
58955;BME280;45815;52.334;5.024;2022-12-10T00:30:36;100868.34;;;-0.08;100.00
58955;BME280;45815;52.334;5.024;2022-12-10T00:33:02;100863.00;;;-0.11;100.00
58955;BME280;45815;52.334;5.024;2022-12-10T00:35:27;100863.00;;;-0.11;100.00
58955;BME280;45815;52.334;5.024;2022-12-10T00:37:53;100864.97;;;-0.07;100.00
58955;BME280;45815;52.334;5.024;2022-12-10T00:40:18;100852.44;;;-0.01;100.00
58955;BME280;45815;52.334;5.024;2022-12-10T00:42:44;100860.00;;;-0.04;100.00
58955;BME280;45815;52.334;5.024;2022-12-10T00:45:10;100839.78;;;-0.11;100.00
58955;BME280;45815;52.334;5.024;2022-12-10T00:47:35;100854.91;;;-0.03;100.00
58955;BME280;45815;52.334;5.024;2022-12-10T00:50:00;100866.06;;;-0.04;100.00
58955;BME280;45815;52.334;5.024;2022-12-10T00:52:26;100845.56;;;-0.15;100.00
58955;BME280;45815;52.334;5.024;2022-12-10T00:54:51;100850.56;;;-0.04;100.00
58955;BME280;45815;52.334;5.024;2022-12-10T00:57:17;100849.69;;;-0.04;100.00
58955;BME280;45815;52.334;5.024;2022-12-10T00:59:42;100855.28;;;-0.11;100.00
58955;BME280;45815;52.334;5.024;2022-12-10T01:02:08;100859.44;;;-0.13;100.00
58955;BME280;45815;52.334;5.024;2022-12-10T01:04:33;100854.88;;;-0.17;100.00
58955;BME280;45815;52.334;5.024;2022-12-10T01:06:59;100857.75;;;-0.13;100.00
58955;BME280;45815;52.334;5.024;2022-12-10T01:09:27;100861.03;;;-0.15;100.00
58955;BME280;45815;52.334;5.024;2022-12-10T01:11:54;100858.63;;;-0.12;100.00
58955;BME280;45815;52.334;5.024;2022-12-10T01:14:32;100869.56;;;-0.16;100.00
58955;BME280;45815;52.334;5.024;2022-12-10T01:17:00;100868.34;;;-0.08;100.00
58955;BME280;45815;52.334;5.024;2022-12-10T01:19:28;100867.78;;;-0.17;100.00
58955;BME280;45815;52.334;5.024;2022-12-10T01:21:54;100879.97;;;-0.15;100.00
58955;BME280;45815;52.334;5.024;2022-12-10T01:24:21;100882.25;;;-0.19;100.00
58955;BME280;45815;52.334;5.024;2022-12-10T01:26:47;100885.06;;;-0.16;100.00
58955;BME280;45815;52.334;5.024;2022-12-10T01:29:12;100886.81;;;-0.15;100.00
58955;BME280;45815;52.334;5.024;2022-12-10T01:31:39;100876.78;;;-0.11;100.00
58955;BME280;45815;52.334;5.024;2022-12-10T01:34:07;100881.94;;;-0.11;100.00
58955;BME280;45815;52.334;5.024;2022-12-10T01:36:36;100893.38;;;-0.20;100.00
58955;BME280;45815;52.334;5.024;2022-12-10T01:39:04;100900.13;;;-0.23;100.00
58955;BME280;45815;52.334;5.024;2022-12-10T01:41:37;100900.13;;;-0.23;100.00
58955;BME280;45815;52.334;5.024;2022-12-10T01:44:57;100899.63;;;-0.17;100.00
58955;BME280;45815;52.334;5.024;2022-12-10T01:46:53;100899.25;;;-0.23;100.00
58955;BME280;45815;52.334;5.024;2022-12-10T01:51:51;100910.34;;;-0.24;100.00
58955;BME280;45815;52.334;5.024;2022-12-10T01:54:23;100911.03;;;-0.27;100.00
58955;BME280;45815;52.334;5.024;2022-12-10T01:57:43;100904.91;;;-0.29;100.00
58955;BME280;45815;52.334;5.024;2022-12-10T01:59:48;100887.84;;;-0.27;100.00
58955;BME280;45815;52.334;5.024;2022-12-10T02:02:28;100913.13;;;-0.21;100.00
58955;BME280;45815;52.334;5.024;2022-12-10T02:10:47;100912.03;;;-0.25;100.00
58955;BME280;45815;52.334;5.024;2022-12-10T02:13:21;100917.19;;;-0.25;100.00
58955;BME280;45815;52.334;5.024;2022-12-10T02:15:52;100898.34;;;-0.24;100.00
58955;BME280;45815;52.334;5.024;2022-12-10T02:18:26;100912.03;;;-0.25;100.00
58955;BME280;45815;52.334;5.024;2022-12-10T02:20:57;100914.81;;;-0.22;100.00
58955;BME280;45815;52.334;5.024;2022-12-10T02:23:47;100911.34;;;-0.22;100.00
58955;BME280;45815;52.334;5.024;2022-12-10T02:29:19;100909.44;;;-0.11;100.00
58955;BME280;45815;52.334;5.024;2022-12-10T02:32:04;100909.72;;;-0.07;100.00
58955;BME280;45815;52.334;5.024;2022-12-10T02:34:40;100914.19;;;-0.04;100.00
58955;BME280;45815;52.334;5.024;2022-12-10T02:37:11;100915.06;;;-0.04;100.00
58955;BME280;45815;52.334;5.024;2022-12-10T02:39:43;100899.50;;;-0.05;100.00
58955;BME280;45815;52.334;5.024;2022-12-10T02:42:11;100910.50;;;-0.08;100.00
58955;BME280;45815;52.334;5.024;2022-12-10T02:44:41;100893.97;;;-0.11;100.00
58955;BME280;45815;52.334;5.024;2022-12-10T02:47:09;100909.59;;;0.05;100.00
58955;BME280;45815;52.334;5.024;2022-12-10T02:49:39;100908.03;;;0.07;100.00
58955;BME280;45815;52.334;5.024;2022-12-10T02:52:12;100902.28;;;-0.02;100.00
58955;BME280;45815;52.334;5.024;2022-12-10T02:54:43;100906.81;;;0.02;100.00
58955;BME280;45815;52.334;5.024;2022-12-10T02:57:47;100910.81;;;-0.03;100.00
58955;BME280;45815;52.334;5.024;2022-12-10T03:00:21;100909.41;;;0.02;100.00
58955;BME280;45815;52.334;5.024;2022-12-10T03:05:48;100907.72;;;0.03;100.00
58955;BME280;45815;52.334;5.024;2022-12-10T03:08:18;100905.22;;;0.04;100.00
58955;BME280;45815;52.334;5.024;2022-12-10T03:11:05;100899.28;;;0.05;100.00
58955;BME280;45815;52.334;5.024;2022-12-10T03:16:20;100896.31;;;-0.01;100.00
58955;BME280;45815;52.334;5.024;2022-12-10T03:18:48;100890.97;;;-0.04;100.00
58955;BME280;45815;52.334;5.024;2022-12-10T03:21:15;100898.19;;;0.02;100.00
58955;BME280;45815;52.334;5.024;2022-12-10T03:23:46;100901.38;;;-0.03;100.00
58955;BME280;45815;52.334;5.024;2022-12-10T03:26:14;100891.38;;;-0.11;100.00
58955;BME280;45815;52.334;5.024;2022-12-10T03:28:50;100902.69;;;-0.09;100.00
58955;BME280;45815;52.334;5.024;2022-12-10T03:31:18;100887.88;;;-0.12;100.00
58955;BME280;45815;52.334;5.024;2022-12-10T03:33:45;100901.88;;;-0.08;100.00
58955;BME280;45815;52.334;5.024;2022-12-10T03:36:12;100899.13;;;-0.11;100.00
58955;BME280;45815;52.334;5.024;2022-12-10T03:38:39;100900.13;;;-0.09;100.00
58955;BME280;45815;52.334;5.024;2022-12-10T03:41:05;100901.59;;;-0.13;100.00
58955;BME280;45815;52.334;5.024;2022-12-10T03:43:31;100900.78;;;-0.12;100.00
58955;BME280;45815;52.334;5.024;2022-12-10T03:45:56;100880.66;;;-0.17;100.00
58955;BME280;45815;52.334;5.024;2022-12-10T03:48:21;100896.13;;;-0.04;100.00
58955;BME280;45815;52.334;5.024;2022-12-10T03:50:47;100889.00;;;-0.08;100.00
58955;BME280;45815;52.334;5.024;2022-12-10T03:53:13;100893.63;;;-0.03;100.00
58955;BME280;45815;52.334;5.024;2022-12-10T03:55:38;100893.44;;;-0.06;100.00
58955;BME280;45815;52.334;5.024;2022-12-10T03:58:04;100894.84;;;-0.11;100.00
58955;BME280;45815;52.334;5.024;2022-12-10T04:00:29;100894.84;;;-0.11;100.00
58955;BME280;45815;52.334;5.024;2022-12-10T04:02:54;100898.50;;;-0.07;100.00
58955;BME280;45815;52.334;5.024;2022-12-10T04:05:20;100895.91;;;-0.07;100.00
58955;BME280;45815;52.334;5.024;2022-12-10T04:07:45;100890.97;;;-0.04;100.00
58955;BME280;45815;52.334;5.024;2022-12-10T04:10:11;100899.69;;;-0.02;100.00
58955;BME280;45815;52.334;5.024;2022-12-10T04:12:38;100881.53;;;-0.04;100.00
58955;BME280;45815;52.334;5.024;2022-12-10T04:15:04;100899.50;;;-0.05;100.00
58955;BME280;45815;52.334;5.024;2022-12-10T04:17:47;100894.53;;;-0.02;100.00
58955;BME280;45815;52.334;5.024;2022-12-10T04:20:13;100895.72;;;0.03;100.00
58955;BME280;45815;52.334;5.024;2022-12-10T04:22:57;100900.16;;;0.06;100.00
58955;BME280;45815;52.334;5.024;2022-12-10T04:25:41;100899.63;;;0.11;100.00
58955;BME280;45815;52.334;5.024;2022-12-10T04:28:25;100902.94;;;0.09;100.00
58955;BME280;45815;52.334;5.024;2022-12-10T04:30:51;100903.75;;;-0.06;100.00
58955;BME280;45815;52.334;5.024;2022-12-10T04:33:16;100899.31;;;-0.08;100.00
58955;BME280;45815;52.334;5.024;2022-12-10T04:35:41;100896.03;;;-0.19;100.00
58955;BME280;45815;52.334;5.024;2022-12-10T04:38:07;100907.34;;;-0.17;100.00
58955;BME280;45815;52.334;5.024;2022-12-10T04:40:32;100905.13;;;-0.39;100.00
58955;BME280;45815;52.334;5.024;2022-12-10T04:42:58;100907.09;;;-0.35;100.00
58955;BME280;45815;52.334;5.024;2022-12-10T04:45:23;100909.38;;;-0.39;100.00
58955;BME280;45815;52.334;5.024;2022-12-10T04:47:48;100907.28;;;-0.32;100.00
58955;BME280;45815;52.334;5.024;2022-12-10T04:50:14;100906.47;;;-0.31;100.00
58955;BME280;45815;52.334;5.024;2022-12-10T04:52:39;100905.09;;;-0.26;100.00
58955;BME280;45815;52.334;5.024;2022-12-10T04:55:05;100901.03;;;-0.22;100.00
58955;BME280;45815;52.334;5.024;2022-12-10T04:57:30;100900.31;;;-0.19;100.00
58955;BME280;45815;52.334;5.024;2022-12-10T04:59:56;100920.78;;;-0.23;100.00
58955;BME280;45815;52.334;5.024;2022-12-10T05:02:21;100918.78;;;-0.27;100.00
58955;BME280;45815;52.334;5.024;2022-12-10T05:04:48;100922.06;;;-0.29;100.00
58955;BME280;45815;52.334;5.024;2022-12-10T05:07:14;100916.91;;;-0.29;100.00
58955;BME280;45815;52.334;5.024;2022-12-10T05:09:39;100916.19;;;-0.27;100.00
58955;BME280;45815;52.334;5.024;2022-12-10T05:12:04;100924.63;;;-0.29;100.00
58955;BME280;45815;52.334;5.024;2022-12-10T05:14:30;100913.25;;;-0.33;100.00
58955;BME280;45815;52.334;5.024;2022-12-10T05:16:55;100920.28;;;-0.30;100.00
58955;BME280;45815;52.334;5.024;2022-12-10T05:19:21;100912.44;;;-0.32;100.00
58955;BME280;45815;52.334;5.024;2022-12-10T05:21:49;100918.50;;;-0.31;100.00
58955;BME280;45815;52.334;5.024;2022-12-10T05:24:34;100904.72;;;-0.45;100.00
58955;BME280;45815;52.334;5.024;2022-12-10T05:27:00;100922.16;;;-0.41;100.00
58955;BME280;45815;52.334;5.024;2022-12-10T05:29:25;100921.75;;;-0.34;100.00
58955;BME280;45815;52.334;5.024;2022-12-10T05:31:51;100916.72;;;-0.32;100.00
58955;BME280;45815;52.334;5.024;2022-12-10T05:34:16;100908.97;;;-0.32;100.00
58955;BME280;45815;52.334;5.024;2022-12-10T05:36:42;100913.44;;;-0.30;100.00
58955;BME280;45815;52.334;5.024;2022-12-10T05:39:08;100909.69;;;-0.35;100.00
58955;BME280;45815;52.334;5.024;2022-12-10T05:41:35;100910.09;;;-0.42;100.00
58955;BME280;45815;52.334;5.024;2022-12-10T05:44:01;100917.94;;;-0.54;100.00
58955;BME280;45815;52.334;5.024;2022-12-10T05:46:29;100917.22;;;-0.51;100.00
58955;BME280;45815;52.334;5.024;2022-12-10T05:48:56;100917.41;;;-0.48;100.00
58955;BME280;45815;52.334;5.024;2022-12-10T05:51:24;100908.50;;;-0.53;100.00
58955;BME280;45815;52.334;5.024;2022-12-10T05:53:51;100922.16;;;-0.41;100.00
58955;BME280;45815;52.334;5.024;2022-12-10T05:56:19;100916.03;;;-0.43;100.00
58955;BME280;45815;52.334;5.024;2022-12-10T05:58:47;100916.13;;;-0.41;100.00
58955;BME280;45815;52.334;5.024;2022-12-10T06:01:15;100926.53;;;-0.40;100.00
58955;BME280;45815;52.334;5.024;2022-12-10T06:03:41;100933.06;;;-0.45;100.00
58955;BME280;45815;52.334;5.024;2022-12-10T06:06:07;100924.56;;;-0.57;100.00
58955;BME280;45815;52.334;5.024;2022-12-10T06:08:34;100929.50;;;-0.47;100.00
58955;BME280;45815;52.334;5.024;2022-12-10T06:11:04;100933.47;;;-0.52;100.00
58955;BME280;45815;52.334;5.024;2022-12-10T06:13:30;100926.84;;;-0.49;100.00
58955;BME280;45815;52.334;5.024;2022-12-10T06:15:56;100928.91;;;-0.43;100.00
58955;BME280;45815;52.334;5.024;2022-12-10T06:18:21;100939.72;;;-0.35;100.00
58955;BME280;45815;52.334;5.024;2022-12-10T06:20:47;100938.94;;;-0.34;100.00
58955;BME280;45815;52.334;5.024;2022-12-10T06:23:13;100922.16;;;-0.41;100.00
58955;BME280;45815;52.334;5.024;2022-12-10T06:25:39;100934.84;;;-0.31;100.00
58955;BME280;45815;52.334;5.024;2022-12-10T06:28:05;100942.81;;;-0.28;100.00
58955;BME280;45815;52.334;5.024;2022-12-10T06:30:31;100937.03;;;-0.24;100.00
58955;BME280;45815;52.334;5.024;2022-12-10T06:32:56;100937.03;;;-0.24;100.00
58955;BME280;45815;52.334;5.024;2022-12-10T06:35:22;100930.28;;;-0.22;100.00
58955;BME280;45815;52.334;5.024;2022-12-10T06:37:49;100932.66;;;-0.25;100.00
58955;BME280;45815;52.334;5.024;2022-12-10T06:40:14;100941.09;;;-0.27;100.00
58955;BME280;45815;52.334;5.024;2022-12-10T06:42:40;100949.13;;;-0.36;100.00
58955;BME280;45815;52.334;5.024;2022-12-10T06:45:06;100959.28;;;-0.39;100.00
58955;BME280;45815;52.334;5.024;2022-12-10T06:47:31;100953.91;;;-0.42;100.00
58955;BME280;45815;52.334;5.024;2022-12-10T06:49:57;100962.16;;;-0.34;100.00
58955;BME280;45815;52.334;5.024;2022-12-10T06:52:22;100967.59;;;-0.30;100.00
58955;BME280;45815;52.334;5.024;2022-12-10T06:54:48;100966.41;;;-0.35;100.00
58955;BME280;45815;52.334;5.024;2022-12-10T06:57:13;100962.34;;;-0.31;100.00
58955;BME280;45815;52.334;5.024;2022-12-10T06:59:39;100971.56;;;-0.35;100.00
58955;BME280;45815;52.334;5.024;2022-12-10T07:02:05;100966.59;;;-0.32;100.00
58955;BME280;45815;52.334;5.024;2022-12-10T07:04:30;100971.06;;;-0.29;100.00
58955;BME280;45815;52.334;5.024;2022-12-10T07:06:56;100970.66;;;-0.22;100.00
58955;BME280;45815;52.334;5.024;2022-12-10T07:09:22;100974.75;;;-0.26;100.00
58955;BME280;45815;52.334;5.024;2022-12-10T07:11:47;100977.31;;;-0.26;100.00
58955;BME280;45815;52.334;5.024;2022-12-10T07:14:16;100971.75;;;-0.32;100.00
58955;BME280;45815;52.334;5.024;2022-12-10T07:16:42;100979.09;;;-0.25;100.00
58955;BME280;45815;52.334;5.024;2022-12-10T07:19:10;100981.88;;;-0.22;100.00
58955;BME280;45815;52.334;5.024;2022-12-10T07:21:37;100994.88;;;-0.20;100.00
58955;BME280;45815;52.334;5.024;2022-12-10T07:24:17;100989.22;;;-0.28;100.00
58955;BME280;45815;52.334;5.024;2022-12-10T07:26:44;100988.84;;;-0.20;100.00
58955;BME280;45815;52.334;5.024;2022-12-10T07:29:19;100997.56;;;-0.18;100.00
58955;BME280;45815;52.334;5.024;2022-12-10T07:31:45;100999.81;;;-0.10;100.00
58955;BME280;45815;52.334;5.024;2022-12-10T07:34:11;100994.78;;;-0.08;100.00
58955;BME280;45815;52.334;5.024;2022-12-10T07:36:37;100998.03;;;-0.11;100.00
58955;BME280;45815;52.334;5.024;2022-12-10T07:39:06;100976.31;;;-0.14;100.00
58955;BME280;45815;52.334;5.024;2022-12-10T07:41:32;100986.22;;;-0.07;100.00
58955;BME280;45815;52.334;5.024;2022-12-10T07:43:58;100989.00;;;-0.04;100.00
58955;BME280;45815;52.334;5.024;2022-12-10T07:46:29;100990.09;;;-0.01;100.00
58955;BME280;45815;52.334;5.024;2022-12-10T07:48:55;100988.63;;;-0.10;100.00
58955;BME280;45815;52.334;5.024;2022-12-10T07:51:21;100989.59;;;-0.08;100.00
58955;BME280;45815;52.334;5.024;2022-12-10T07:53:50;100987.91;;;-0.08;100.00
58955;BME280;45815;52.334;5.024;2022-12-10T07:56:16;100988.78;;;-0.07;100.00
58955;BME280;45815;52.334;5.024;2022-12-10T07:58:43;100975.22;;;-0.18;100.00
58955;BME280;45815;52.334;5.024;2022-12-10T08:01:11;100992.69;;;-0.14;100.00
58955;BME280;45815;52.334;5.024;2022-12-10T08:03:37;100988.84;;;-0.20;100.00
58955;BME280;45815;52.334;5.024;2022-12-10T08:06:06;100999.44;;;-0.29;100.00
58955;BME280;45815;52.334;5.024;2022-12-10T08:08:33;101002.91;;;-0.29;100.00
58955;BME280;45815;52.334;5.024;2022-12-10T08:10:59;100992.59;;;-0.42;100.00
58955;BME280;45815;52.334;5.024;2022-12-10T08:13:26;101006.38;;;-0.28;100.00
58955;BME280;45815;52.334;5.024;2022-12-10T08:15:52;101010.16;;;-0.36;100.00
58955;BME280;45815;52.334;5.024;2022-12-10T08:18:17;101009.63;;;-0.31;100.00
58955;BME280;45815;52.334;5.024;2022-12-10T08:20:43;101014.09;;;-0.28;100.00
58955;BME280;45815;52.334;5.024;2022-12-10T08:23:08;101014.78;;;-0.31;100.00
58955;BME280;45815;52.334;5.024;2022-12-10T08:25:35;101011.91;;;-0.35;100.00
58955;BME280;45815;52.334;5.024;2022-12-10T08:28:01;101020.38;;;-0.25;100.00
58955;BME280;45815;52.334;5.024;2022-12-10T08:30:28;101017.59;;;-0.28;100.00
58955;BME280;45815;52.334;5.024;2022-12-10T08:32:53;101024.53;;;-0.27;100.00
58955;BME280;45815;52.334;5.024;2022-12-10T08:35:20;101025.41;;;-0.26;100.00
58955;BME280;45815;52.334;5.024;2022-12-10T08:37:45;101011.63;;;-0.40;100.00
58955;BME280;45815;52.334;5.024;2022-12-10T08:40:11;101035.94;;;-0.36;100.00
58955;BME280;45815;52.334;5.024;2022-12-10T08:42:37;101036.81;;;-0.36;100.00
58955;BME280;45815;52.334;5.024;2022-12-10T08:45:04;101049.44;;;-0.27;100.00
58955;BME280;45815;52.334;5.024;2022-12-10T08:47:29;101049.75;;;-0.23;100.00
58955;BME280;45815;52.334;5.024;2022-12-10T08:49:55;101046.16;;;-0.25;100.00
58955;BME280;45815;52.334;5.024;2022-12-10T08:52:20;101051.50;;;-0.22;100.00
58955;BME280;45815;52.334;5.024;2022-12-10T08:54:46;101058.88;;;-0.28;100.00
58955;BME280;45815;52.334;5.024;2022-12-10T08:57:11;101058.38;;;-0.22;100.00
58955;BME280;45815;52.334;5.024;2022-12-10T08:59:36;101066.59;;;-0.28;100.00
58955;BME280;45815;52.334;5.024;2022-12-10T09:02:02;101066.22;;;-0.20;100.00
58955;BME280;45815;52.334;5.024;2022-12-10T09:04:27;101059.78;;;-0.14;100.00
58955;BME280;45815;52.334;5.024;2022-12-10T09:06:53;101069.88;;;-0.04;100.00
58955;BME280;45815;52.334;5.024;2022-12-10T09:09:19;101063.31;;;-0.12;100.00
58955;BME280;45815;52.334;5.024;2022-12-10T09:11:44;101055.09;;;-0.19;100.00
58955;BME280;45815;52.334;5.024;2022-12-10T09:14:11;101060.84;;;-0.10;100.00
58955;BME280;45815;52.334;5.024;2022-12-10T09:16:37;101055.88;;;-0.07;100.00
58955;BME280;45815;52.334;5.024;2022-12-10T09:19:04;101062.84;;;-0.06;100.00
58955;BME280;45815;52.334;5.024;2022-12-10T09:21:30;101061.34;;;-0.03;100.00
58955;BME280;45815;52.334;5.024;2022-12-10T09:23:56;101063.16;;;0.12;100.00
58955;BME280;45815;52.334;5.024;2022-12-10T09:26:23;101067.81;;;0.17;100.00
58955;BME280;45815;52.334;5.024;2022-12-10T09:28:49;101065.22;;;0.17;100.00
58955;BME280;45815;52.334;5.024;2022-12-10T09:31:17;101062.44;;;0.14;100.00
58955;BME280;45815;52.334;5.024;2022-12-10T09:33:43;101065.63;;;0.10;100.00
58955;BME280;45815;52.334;5.024;2022-12-10T09:36:11;101075.25;;;0.13;100.00
58955;BME280;45815;52.334;5.024;2022-12-10T09:38:38;101078.13;;;0.04;100.00
58955;BME280;45815;52.334;5.024;2022-12-10T09:46:53;101085.88;;;0.04;100.00
58955;BME280;45815;52.334;5.024;2022-12-10T09:49:31;101084.25;;;-0.07;100.00
58955;BME280;45815;52.334;5.024;2022-12-10T09:52:03;101089.06;;;0.00;100.00
58955;BME280;45815;52.334;5.024;2022-12-10T09:54:33;101086.66;;;-0.10;100.00
58955;BME280;45815;52.334;5.024;2022-12-10T09:57:04;101089.34;;;-0.09;100.00
58955;BME280;45815;52.334;5.024;2022-12-10T09:59:42;101097.78;;;-0.11;100.00
58955;BME280;45815;52.334;5.024;2022-12-10T10:04:40;101094.19;;;-0.13;100.00
58955;BME280;45815;52.334;5.024;2022-12-10T10:07:06;101095.66;;;-0.17;100.00
58955;BME280;45815;52.334;5.024;2022-12-10T10:09:40;101093.22;;;-0.02;100.00
58955;BME280;45815;52.334;5.024;2022-12-10T10:12:14;101094.59;;;-0.07;100.00
58955;BME280;45815;52.334;5.024;2022-12-10T10:14:41;101092.41;;;-0.01;100.00
58955;BME280;45815;52.334;5.024;2022-12-10T10:17:31;101093.69;;;-0.08;100.00
58955;BME280;45815;52.334;5.024;2022-12-10T10:19:59;101096.19;;;0.04;100.00
58955;BME280;45815;52.334;5.024;2022-12-10T10:22:24;101095.31;;;0.04;100.00
58955;BME280;45815;52.334;5.024;2022-12-10T10:24:51;101098.16;;;-0.05;100.00
58955;BME280;45815;52.334;5.024;2022-12-10T10:27:20;101095.00;;;-0.01;100.00
58955;BME280;45815;52.334;5.024;2022-12-10T10:29:49;101098.38;;;-0.02;100.00
58955;BME280;45815;52.334;5.024;2022-12-10T10:34:44;101097.75;;;0.02;100.00
58955;BME280;45815;52.334;5.024;2022-12-10T10:37:17;101096.38;;;-0.06;100.00
58955;BME280;45815;52.334;5.024;2022-12-10T10:39:48;101099.38;;;0.00;100.00
58955;BME280;45815;52.334;5.024;2022-12-10T10:42:42;101100.75;;;-0.05;100.00
58955;BME280;45815;52.334;5.024;2022-12-10T10:48:16;101101.75;;;0.10;100.00
58955;BME280;45815;52.334;5.024;2022-12-10T10:50:43;101105.00;;;0.21;100.00
58955;BME280;45815;52.334;5.024;2022-12-10T10:53:32;101109.81;;;0.15;100.00
58955;BME280;45815;52.334;5.024;2022-12-10T10:56:05;101109.50;;;0.24;100.00
58955;BME280;45815;52.334;5.024;2022-12-10T10:58:32;101094.19;;;0.13;100.00
58955;BME280;45815;52.334;5.024;2022-12-10T11:01:04;101098.56;;;0.28;100.00
58955;BME280;45815;52.334;5.024;2022-12-10T11:03:33;101098.78;;;0.31;100.00
58955;BME280;45815;52.334;5.024;2022-12-10T11:05:59;101097.19;;;0.33;100.00
58955;BME280;45815;52.334;5.024;2022-12-10T11:08:29;101100.97;;;0.25;100.00
58955;BME280;45815;52.334;5.024;2022-12-10T11:11:02;101092.63;;;0.29;100.00
58955;BME280;45815;52.334;5.024;2022-12-10T11:13:32;101098.84;;;0.32;100.00
58955;BME280;45815;52.334;5.024;2022-12-10T11:15:59;101097.09;;;0.31;100.00
58955;BME280;45815;52.334;5.024;2022-12-10T11:23:40;101098.09;;;0.20;100.00
58955;BME280;45815;52.334;5.024;2022-12-10T11:26:34;101094.50;;;0.31;100.00
58955;BME280;45815;52.334;5.024;2022-12-10T11:34:38;101098.97;;;0.47;100.00
58955;BME280;45815;52.334;5.024;2022-12-10T11:40:11;101098.03;;;0.47;100.00
58955;BME280;45815;52.334;5.024;2022-12-10T11:48:40;101069.09;;;-0.03;100.00
58955;BME280;45815;52.334;5.024;2022-12-10T11:51:35;101090.03;;;0.15;100.00
58955;BME280;45815;52.334;5.024;2022-12-10T11:56:46;101091.94;;;0.31;100.00
58955;BME280;45815;52.334;5.024;2022-12-10T11:59:28;101092.50;;;0.27;100.00
58955;BME280;45815;52.334;5.024;2022-12-10T12:02:22;101094.03;;;0.24;100.00
58955;BME280;45815;52.334;5.024;2022-12-10T12:13:08;101097.16;;;0.46;100.00
58955;BME280;45815;52.334;5.024;2022-12-10T12:15:39;101088.81;;;0.37;100.00
58955;BME280;45815;52.334;5.024;2022-12-10T12:21:13;101088.06;;;0.38;100.00
58955;BME280;45815;52.334;5.024;2022-12-10T12:23:45;101083.88;;;0.40;100.00
58955;BME280;45815;52.334;5.024;2022-12-10T12:28:53;101091.69;;;0.55;100.00
58955;BME280;45815;52.334;5.024;2022-12-10T12:31:32;101079.47;;;0.52;100.00
58955;BME280;45815;52.334;5.024;2022-12-10T12:34:05;101082.78;;;0.50;100.00
58955;BME280;45815;52.334;5.024;2022-12-10T12:36:36;101072.75;;;0.41;100.00
58955;BME280;45815;52.334;5.024;2022-12-10T12:39:20;101085.44;;;0.51;100.00
58955;BME280;45815;52.334;5.024;2022-12-10T12:49:43;101072.84;;;0.43;100.00
58955;BME280;45815;52.334;5.024;2022-12-10T12:54:56;101076.72;;;0.49;100.00
58955;BME280;45815;52.334;5.024;2022-12-10T12:57:49;101083.47;;;0.47;100.00
58955;BME280;45815;52.334;5.024;2022-12-10T13:00:22;101095.06;;;0.54;100.00
58955;BME280;45815;52.334;5.024;2022-12-10T13:02:53;101091.13;;;0.32;100.00
58955;BME280;45815;52.334;5.024;2022-12-10T13:05:27;101087.94;;;0.36;100.00
58955;BME280;45815;52.334;5.024;2022-12-10T13:11:16;101084.28;;;0.33;100.00
58955;BME280;45815;52.334;5.024;2022-12-10T13:13:42;101093.00;;;0.35;100.00
58955;BME280;45815;52.334;5.024;2022-12-10T13:22:10;101104.34;;;0.24;100.00
58955;BME280;45815;52.334;5.024;2022-12-10T13:32:22;101107.91;;;0.52;100.00
58955;BME280;45815;52.334;5.024;2022-12-10T13:48:57;101126.38;;;0.45;100.00
58955;BME280;45815;52.334;5.024;2022-12-10T13:54:23;101130.06;;;0.35;100.00
58955;BME280;45815;52.334;5.024;2022-12-10T13:59:47;101130.16;;;0.50;100.00
58955;BME280;45815;52.334;5.024;2022-12-10T14:07:32;101146.94;;;0.44;100.00
58955;BME280;45815;52.334;5.024;2022-12-10T14:09:59;101149.50;;;0.44;100.00
58955;BME280;45815;52.334;5.024;2022-12-10T14:12:29;101154.97;;;0.48;100.00
58955;BME280;45815;52.334;5.024;2022-12-10T14:15:05;101153.69;;;0.41;100.00
58955;BME280;45815;52.334;5.024;2022-12-10T14:17:43;101153.78;;;0.43;100.00
58955;BME280;45815;52.334;5.024;2022-12-10T14:20:22;101149.03;;;0.36;100.00
58955;BME280;45815;52.334;5.024;2022-12-10T14:22:50;101151.19;;;0.43;100.00
58955;BME280;45815;52.334;5.024;2022-12-10T14:25:18;101142.66;;;0.44;100.00
58955;BME280;45815;52.334;5.024;2022-12-10T14:27:47;101140.28;;;0.47;100.00
58955;BME280;45815;52.334;5.024;2022-12-10T14:30:21;101151.00;;;0.53;100.00
58955;BME280;45815;52.334;5.024;2022-12-10T14:32:47;101142.47;;;0.54;100.00
58955;BME280;45815;52.334;5.024;2022-12-10T14:35:19;101149.81;;;0.61;100.00
58955;BME280;45815;52.334;5.024;2022-12-10T14:37:46;101144.06;;;0.52;100.00
58955;BME280;45815;52.334;5.024;2022-12-10T14:40:21;101148.22;;;0.50;100.00
58955;BME280;45815;52.334;5.024;2022-12-10T14:42:48;101137.69;;;0.47;100.00
58955;BME280;45815;52.334;5.024;2022-12-10T14:45:15;101141.16;;;0.48;100.00
58955;BME280;45815;52.334;5.024;2022-12-10T14:47:41;101142.25;;;0.51;100.00
58955;BME280;45815;52.334;5.024;2022-12-10T14:50:14;101154.56;;;0.55;100.00
58955;BME280;45815;52.334;5.024;2022-12-10T14:52:43;101158.16;;;0.57;100.00